Popsquash, Vermont
Current Conditions -  °F | °C
As of 1:35 AM on Thursday 27 Nov 2014 (Local Time) from KFSO Reporting Station
Light Snow Light Snow  
Wind Chill: 20°   Ceiling: 500
Heat Index: 28°   Visibility: 2mi
Dew Point: 27°   Wind: 8mph
Humidity: 94%   Direction: 350°N
Pressure: 29.96"   Gusts: NA
Location:  44.9002°N, 73.1493°W
Report Text: KFSO 270635Z AUTO 35007KT 2SM -SN OVC005 M02/M03 A2996 RMK AO2 T10211029
Loading
Personal Weather Stations






























Interactive Weather Map New forecast layout! Learn more

10-Day Weather Forecast

Advertisements
Track Severe Weather on mobile